CYMHCYAY

Guest
Details From CYMH - Marys Harbour
To CYAY - St Anthony
Flight Number -
Tags Generated
Created
Modified
Stats Distance 55 nm / 103 km
Max Altitude 0 ft / 0 m
Waypoints 2
Social Downloads 2
Likes 0
Share VATSIM

Download

Looking for another format? Having issues loading an existing format? Contact us
Advertisement - Login to hide

Notes

Generated

Route

CYMH CYAY

ID Type Via Altitude Latitude Longitude Leg Dist Tot Dist Heading (true) Name
O CYMH APT - 0 ft / 0 m 52.30195˚ -55.85111˚ - 0 nm - Marys Harbour
O CYAY APT - 0 ft / 0 m 51.39093˚ -56.09177˚ 55 nm 55 nm 189° / 189° -

Altitude Profile

Advertisement - Login to hide

CYMH

Details ICAO CYMH (YMH)
Name Marys Harbour
Region Canada
Timezone America/St_Johns (UTC-3.5)
Stats Elevation 38 ft / 12 m (AMSL)
Location 52.302250° -55.845423°
Runways 1
Magnetic Variation 20.302° W

METAR

CYMH 170200Z AUTO 30010G16KT 260V320 9SM BKN180 M12/M17 A2919 RMK SLP887

Decode

TAF

TAF CYMH 170138Z 1702/1704 29012KT P6SM BKN150 RMK FCST BASED ON AUTO OBS. NXT FCST WILL BE ISSUED AT 170945Z

Decode

Departure Runways

ID Width Length Bearing (true) Bearing (mag) Surface Threshold Offset Overrun Length
11 98 ft / 30 m 2,549 ft / 777 m 85.00° 105.30° Gravel 0 ft / 0 m 0 ft / 0 m
29 98 ft / 30 m 2,549 ft / 777 m 265.01° 285.31° Gravel 0 ft / 0 m 0 ft / 0 m

CYAY

Details ICAO CYAY (YAY)
Name ST ANTHONY
Region Canada
Timezone America/St_Johns (UTC-3.5)
Stats Elevation 108 ft / 33 m (AMSL)
Location 51.391900° -56.083147°
Runways 1
Magnetic Variation 19.922° W

METAR

CYAY 170200Z AUTO 29011KT 9SM CLR M09/M13 A2918 RMK ICG SLP885

Decode

TAF

TAF CYAY 170138Z 1702/1714 27010KT P6SM BKN150 FM170500 27015G25KT P6SM -SN BKN030 TEMPO 1705/1714 2SM -SN BLSN OVC015 RMK FCST BASED ON AUTO OBS. NXT FCST BY 170800Z

Decode

Destination Runways

ID Width Length Bearing (true) Bearing (mag) Surface Threshold Offset Overrun Length
10 100 ft / 30 m 3,992 ft / 1,217 m 79.79° 99.71° Asphalt 0 ft / 0 m 0 ft / 0 m
28 100 ft / 30 m 3,992 ft / 1,217 m 259.80° 279.72° Asphalt 0 ft / 0 m 0 ft / 0 m